createdAt,value
2019-05-15T00:01:12.199Z,102647.51
2019-05-15T00:03:42.292Z,102650.20
2019-05-15T00:06:12.304Z,102636.73
2019-05-15T00:08:42.317Z,102647.32
2019-05-15T00:11:12.306Z,102641.94
2019-05-15T00:13:42.351Z,102642.68
2019-05-15T00:16:12.365Z,102638.60
2019-05-15T00:18:42.381Z,102633.34
2019-05-15T00:21:12.401Z,102635.92
2019-05-15T00:23:42.477Z,102629.09
2019-05-15T00:26:12.527Z,102633.17
2019-05-15T00:28:42.527Z,102637.34
2019-05-15T00:31:12.570Z,102628.76
2019-05-15T00:33:42.629Z,102623.98
2019-05-15T00:36:12.613Z,102619.58
2019-05-15T00:38:42.590Z,102619.52
2019-05-15T00:41:12.566Z,102609.89
2019-05-15T00:43:42.541Z,102618.42
2019-05-15T00:46:12.544Z,102605.33
2019-05-15T00:48:42.554Z,102612.08
2019-05-15T00:51:14.741Z,102607.00
2019-05-15T00:53:44.242Z,102599.66
2019-05-15T00:56:14.376Z,102602.06
2019-05-15T00:58:44.376Z,102601.00
2019-05-15T01:01:14.372Z,102600.64
2019-05-15T01:03:44.356Z,102597.64
2019-05-15T01:06:14.372Z,102600.14
2019-05-15T01:08:44.330Z,102600.91
2019-05-15T01:11:14.498Z,102603.32
2019-05-15T01:13:44.474Z,102596.98
2019-05-15T01:16:14.445Z,102602.45
2019-05-15T01:18:44.393Z,102592.39
2019-05-15T01:21:14.468Z,102593.61
2019-05-15T01:23:44.444Z,102599.68
2019-05-15T01:26:14.424Z,102593.92
2019-05-15T01:28:44.420Z,102592.36
2019-05-15T01:31:14.508Z,102594.75
2019-05-15T01:33:44.481Z,102591.86
2019-05-15T01:36:14.453Z,102593.86
2019-05-15T01:38:44.417Z,102595.59
2019-05-15T01:41:14.396Z,102594.09
2019-05-15T01:43:44.372Z,102600.58
2019-05-15T01:46:14.463Z,102588.67
2019-05-15T01:48:44.430Z,102594.61
2019-05-15T01:51:14.485Z,102587.27
2019-05-15T01:53:44.446Z,102591.63
2019-05-15T01:56:14.446Z,102579.39
2019-05-15T01:58:44.408Z,102581.27
2019-05-15T02:01:14.493Z,102588.28
2019-05-15T02:03:44.522Z,102584.27
2019-05-15T02:06:14.532Z,102580.36
2019-05-15T02:08:44.573Z,102573.66
2019-05-15T02:11:14.620Z,102580.92
2019-05-15T02:13:45.044Z,102581.83
2019-05-15T02:16:15.102Z,102574.67
2019-05-15T02:18:45.323Z,102580.48
2019-05-15T02:21:15.305Z,102577.80
2019-05-15T02:23:45.336Z,102578.27
2019-05-15T02:26:15.376Z,102571.61
2019-05-15T02:28:45.378Z,102567.25
2019-05-15T02:31:15.359Z,102571.98
2019-05-15T02:33:45.432Z,102569.61
2019-05-15T02:36:15.384Z,102569.44
2019-05-15T02:38:48.464Z,102558.44
2019-05-15T02:41:19.539Z,102559.06
2019-05-15T02:43:50.107Z,102558.86
2019-05-15T02:46:20.315Z,102551.52
2019-05-15T02:48:50.299Z,102552.39
2019-05-15T02:51:20.272Z,102552.15
2019-05-15T02:53:50.537Z,102554.02
2019-05-15T02:56:21.041Z,102557.12
2019-05-15T02:58:51.019Z,102550.17
2019-05-15T03:01:20.981Z,102554.12
2019-05-15T03:03:51.077Z,102552.97
2019-05-15T03:06:21.116Z,102555.42
2019-05-15T03:08:51.084Z,102562.02
2019-05-15T03:11:21.025Z,102560.70
2019-05-15T03:13:51.016Z,102554.66
2019-05-15T03:16:20.983Z,102545.22
2019-05-15T03:18:55.573Z,102542.83
2019-05-15T03:21:22.764Z,102543.27
2019-05-15T03:23:52.769Z,102535.41
2019-05-15T03:26:22.738Z,102538.36
2019-05-15T03:28:52.725Z,102534.97
2019-05-15T03:31:41.741Z,102535.63
2019-05-15T03:33:55.108Z,102535.18
2019-05-15T03:36:31.151Z,102532.67
2019-05-15T03:38:58.696Z,102534.47
2019-05-15T03:41:29.890Z,102534.70
2019-05-15T03:43:59.951Z,102535.63
2019-05-15T03:46:29.939Z,102537.29
2019-05-15T03:49:00.558Z,102532.58
2019-05-15T03:51:30.913Z,102542.56
2019-05-15T03:54:01.449Z,102538.66
2019-05-15T03:56:31.453Z,102538.95
2019-05-15T03:59:01.433Z,102536.96
2019-05-15T04:01:38.747Z,102545.28
2019-05-15T04:04:03.221Z,102541.79
2019-05-15T04:06:33.207Z,102542.44
2019-05-15T04:09:04.975Z,102540.62
2019-05-15T04:11:34.981Z,102539.47
2019-05-15T04:14:05.147Z,102547.47
2019-05-15T04:16:35.110Z,102547.38
2019-05-15T04:19:05.090Z,102551.67
2019-05-15T04:21:35.048Z,102552.83
2019-05-15T04:24:05.049Z,102559.27
2019-05-15T04:26:35.128Z,102556.29
2019-05-15T04:29:05.087Z,102557.98
2019-05-15T04:31:50.335Z,102564.80
2019-05-15T04:34:09.223Z,102557.27
2019-05-15T04:36:39.639Z,102560.77
2019-05-15T04:39:10.235Z,102564.95
2019-05-15T04:41:40.150Z,102553.19
2019-05-15T04:44:10.512Z,102557.07
2019-05-15T04:46:40.708Z,102555.81
2019-05-15T04:49:10.751Z,102558.34
2019-05-15T04:51:40.717Z,102563.90
2019-05-15T04:54:10.693Z,102563.72
2019-05-15T04:56:40.650Z,102562.34
2019-05-15T04:59:10.637Z,102551.68
2019-05-15T05:01:40.659Z,102555.70
2019-05-15T05:04:10.660Z,102557.67
2019-05-15T05:06:41.477Z,102559.61
2019-05-15T05:09:11.470Z,102557.49
2019-05-15T05:11:41.422Z,102558.02
2019-05-15T05:14:11.410Z,102554.95
2019-05-15T05:16:41.389Z,102553.22
2019-05-15T05:19:11.352Z,102556.88
2019-05-15T05:21:41.336Z,102557.55
2019-05-15T05:24:11.325Z,102554.98
2019-05-15T05:26:41.296Z,102550.52
2019-05-15T05:29:11.315Z,102552.95
2019-05-15T05:31:41.281Z,102547.63
2019-05-15T05:34:19.225Z,102542.70
2019-05-15T05:36:48.144Z,102545.55
2019-05-15T05:39:19.935Z,102545.23
2019-05-15T05:41:49.852Z,102543.39
2019-05-15T05:44:19.843Z,102541.53
2019-05-15T05:46:49.836Z,102545.75
2019-05-15T05:49:19.784Z,102539.31
2019-05-15T05:51:49.752Z,102535.30
2019-05-15T05:54:19.710Z,102537.69
2019-05-15T05:56:49.671Z,102535.36
2019-05-15T05:59:19.617Z,102538.63
2019-05-15T06:01:49.646Z,102538.15
2019-05-15T06:04:19.621Z,102535.52
2019-05-15T06:07:06.247Z,102534.89
2019-05-15T06:09:21.313Z,102537.98
2019-05-15T06:11:51.296Z,102535.30
2019-05-15T06:14:21.262Z,102531.98
2019-05-15T06:16:51.242Z,102534.02
2019-05-15T06:19:21.230Z,102532.20
2019-05-15T06:21:56.837Z,102536.04
2019-05-15T06:24:22.880Z,102532.92
2019-05-15T06:26:52.902Z,102533.48
2019-05-15T06:29:22.876Z,102527.30
2019-05-15T06:31:52.870Z,102527.75
2019-05-15T06:34:22.828Z,102532.34
2019-05-15T06:36:52.807Z,102524.78
2019-05-15T06:39:22.782Z,102527.67
2019-05-15T06:41:52.898Z,102521.53
2019-05-15T06:44:22.895Z,102522.64
2019-05-15T06:46:52.862Z,102522.16
2019-05-15T06:49:22.848Z,102523.62
2019-05-15T06:51:52.824Z,102522.97
2019-05-15T06:54:22.823Z,102521.05
2019-05-15T06:56:52.800Z,102519.50
2019-05-15T06:59:22.797Z,102516.12
2019-05-15T07:01:52.806Z,102521.80
2019-05-15T07:04:22.813Z,102520.98
2019-05-15T07:06:52.797Z,102522.14
2019-05-15T07:09:23.233Z,102522.33
2019-05-15T07:11:53.250Z,102515.17
2019-05-15T07:14:23.272Z,102514.37
2019-05-15T07:16:53.359Z,102515.29
2019-05-15T07:19:23.369Z,102518.21
2019-05-15T07:21:53.337Z,102506.74
2019-05-15T07:24:23.435Z,102506.34
2019-05-15T07:26:53.379Z,102500.20
2019-05-15T07:29:23.378Z,102501.45
2019-05-15T07:31:53.339Z,102501.45
2019-05-15T07:34:23.383Z,102500.98
2019-05-15T07:36:53.345Z,102495.28
2019-05-15T07:39:23.341Z,102492.69
2019-05-15T07:41:53.355Z,102495.73
2019-05-15T07:44:23.364Z,102494.83
2019-05-15T07:46:53.334Z,102490.80
2019-05-15T07:49:23.316Z,102496.73
2019-05-15T07:51:53.277Z,102490.59
2019-05-15T07:54:23.369Z,102486.76
2019-05-15T07:56:53.341Z,102484.56
2019-05-15T07:59:23.324Z,102479.31
2019-05-15T08:01:53.487Z,102477.66
2019-05-15T08:04:29.608Z,102474.50
2019-05-15T08:06:55.237Z,102478.72
2019-05-15T08:09:25.210Z,102468.66
2019-05-15T08:11:55.204Z,102470.45
2019-05-15T08:14:25.233Z,102473.94
2019-05-15T08:16:55.245Z,102467.55
2019-05-15T08:19:25.214Z,102458.25
2019-05-15T08:21:55.201Z,102457.03
2019-05-15T08:24:25.165Z,102446.85
2019-05-15T08:26:55.195Z,102446.95
2019-05-15T08:29:25.165Z,102445.92
2019-05-15T08:31:55.168Z,102444.47
2019-05-15T08:34:25.113Z,102441.28
2019-05-15T08:36:55.195Z,102436.54
2019-05-15T08:39:25.156Z,102444.55
2019-05-15T08:41:55.133Z,102431.26
2019-05-15T08:44:25.134Z,102425.90
2019-05-15T08:46:55.127Z,102419.49
2019-05-15T08:49:25.112Z,102424.06
2019-05-15T08:51:55.081Z,102415.08
2019-05-15T08:54:25.039Z,102422.59
2019-05-15T08:56:55.030Z,102410.88
2019-05-15T08:59:25.018Z,102403.42
2019-05-15T09:01:55.017Z,102406.23
2019-05-15T09:04:30.636Z,102406.00
2019-05-15T09:07:01.034Z,102394.11
2019-05-15T09:09:28.789Z,102396.69
2019-05-15T09:11:58.971Z,102391.79
2019-05-15T09:14:28.913Z,102372.87
2019-05-15T09:16:58.911Z,102390.41
2019-05-15T09:19:28.961Z,102392.52
2019-05-15T09:21:58.957Z,102390.44
2019-05-15T09:24:28.902Z,102388.02
2019-05-15T09:26:59.634Z,102390.55
2019-05-15T09:29:30.289Z,102379.24
2019-05-15T09:32:00.438Z,102380.05
2019-05-15T09:34:46.677Z,102380.55
2019-05-15T09:37:02.127Z,102370.56
2019-05-15T09:39:32.088Z,102376.75
2019-05-15T09:42:02.081Z,102373.48
2019-05-15T09:44:32.088Z,102361.56
2019-05-15T09:47:02.096Z,102352.88
2019-05-15T09:49:32.069Z,102351.84
2019-05-15T09:52:02.064Z,102355.81
2019-05-15T09:54:32.047Z,102346.92
2019-05-15T09:57:02.019Z,102343.53
2019-05-15T09:59:32.000Z,102330.13
2019-05-15T10:02:02.018Z,102329.55
2019-05-15T10:04:31.988Z,102329.87
2019-05-15T10:07:02.127Z,102329.20
2019-05-15T10:09:32.092Z,102331.42
2019-05-15T10:12:03.353Z,102318.11
2019-05-15T10:14:33.340Z,102320.98
2019-05-15T10:17:03.388Z,102324.79
2019-05-15T10:19:33.320Z,102321.30
2019-05-15T10:22:03.317Z,102323.66
2019-05-15T10:24:33.284Z,102311.22
2019-05-15T10:27:03.363Z,102301.40
2019-05-15T10:29:33.341Z,102302.66
2019-05-15T10:32:03.353Z,102302.69
2019-05-15T10:34:33.370Z,102302.25
2019-05-15T10:37:03.330Z,102292.57
2019-05-15T10:39:33.304Z,102285.18
2019-05-15T10:42:03.302Z,102288.01
2019-05-15T10:44:33.314Z,102282.67
2019-05-15T10:47:03.283Z,102286.38
2019-05-15T10:49:33.261Z,102288.92
2019-05-15T10:52:04.050Z,102287.46
2019-05-15T10:54:34.030Z,102285.80
2019-05-15T10:57:05.332Z,102282.76
2019-05-15T10:59:35.678Z,102273.03
2019-05-15T11:02:05.728Z,102278.50
2019-05-15T11:04:35.710Z,102269.28
2019-05-15T11:07:05.680Z,102266.17
2019-05-15T11:09:37.534Z,102264.05
2019-05-15T11:12:08.734Z,102261.47
2019-05-15T11:14:38.793Z,102258.62
2019-05-15T11:17:08.797Z,102250.72
2019-05-15T11:19:40.507Z,102256.67
2019-05-15T11:22:10.483Z,102253.92
2019-05-15T11:24:40.640Z,102253.56
2019-05-15T11:27:10.600Z,102249.98
2019-05-15T11:29:40.613Z,102253.03
2019-05-15T11:32:10.565Z,102244.38
2019-05-15T11:34:40.580Z,102247.68
2019-05-15T11:37:10.545Z,102244.34
2019-05-15T11:39:45.720Z,102246.17
2019-05-15T11:42:12.256Z,102241.02
2019-05-15T11:44:42.291Z,102250.95
2019-05-15T11:47:12.269Z,102229.25
2019-05-15T11:49:42.424Z,102215.59
2019-05-15T11:52:12.401Z,102236.09
2019-05-15T11:54:42.421Z,102229.69
2019-05-15T11:57:12.363Z,102235.69
2019-05-15T11:59:45.096Z,102232.16
2019-05-15T12:02:14.079Z,102226.95
2019-05-15T12:04:44.086Z,102226.84
2019-05-15T12:07:14.077Z,102226.84
2019-05-15T12:09:44.172Z,102219.45
2019-05-15T12:12:14.223Z,102214.59
2019-05-15T12:14:44.291Z,102207.29
2019-05-15T12:17:15.488Z,102209.41
2019-05-15T12:19:55.018Z,102208.52
2019-05-15T12:22:17.306Z,102207.97
2019-05-15T12:24:49.869Z,102193.30
2019-05-15T12:27:19.056Z,102200.54
2019-05-15T12:29:49.405Z,102198.28
2019-05-15T12:34:51.222Z,102195.77
2019-05-15T12:37:21.197Z,102190.51
2019-05-15T13:00:07.446Z,102202.25
2019-05-15T13:02:38.681Z,102194.77
2019-05-15T13:05:08.798Z,102202.94
2019-05-15T13:07:38.733Z,102196.54
2019-05-15T13:10:09.015Z,102194.29
2019-05-15T13:12:55.271Z,102192.45
2019-05-15T13:15:10.681Z,102184.73
2019-05-15T13:17:40.681Z,102185.13
2019-05-15T13:20:10.854Z,102184.05
2019-05-15T13:22:40.893Z,102179.52
2019-05-15T13:25:12.010Z,102179.96
2019-05-15T13:27:42.029Z,102182.91
2019-05-15T13:30:12.299Z,102187.03
2019-05-15T13:32:42.319Z,102185.70
2019-05-15T13:35:12.528Z,102175.53
2019-05-15T13:37:42.519Z,102177.80
2019-05-15T13:40:12.592Z,102168.57
2019-05-15T13:42:42.607Z,102174.84
2019-05-15T13:45:13.671Z,102179.47
2019-05-15T13:47:43.705Z,102173.01
2019-05-15T13:50:13.728Z,102176.48
2019-05-15T13:52:43.749Z,102157.52
2019-05-15T13:55:13.730Z,102152.72
2019-05-15T13:57:43.760Z,102158.80
2019-05-15T14:00:14.119Z,102160.61
2019-05-15T14:02:44.125Z,102166.23
2019-05-15T14:05:14.111Z,102160.38
2019-05-15T14:07:49.327Z,102154.98
2019-05-15T14:10:17.974Z,102164.28
2019-05-15T14:12:47.956Z,102162.67
2019-05-15T14:15:19.052Z,102154.83
2019-05-15T14:17:49.071Z,102162.37
2019-05-15T14:20:19.036Z,102151.17
2019-05-15T14:22:49.121Z,102160.90
2019-05-15T14:25:19.144Z,102152.52
2019-05-15T14:27:49.148Z,102145.22
2019-05-15T14:30:19.456Z,102148.84
2019-05-15T14:32:49.434Z,102149.91
2019-05-15T14:35:19.412Z,102149.72
2019-05-15T14:38:02.560Z,102152.31
2019-05-15T14:40:21.112Z,102154.55
2019-05-15T14:42:51.136Z,102141.37
2019-05-15T14:45:21.165Z,102151.44
2019-05-15T14:47:51.166Z,102145.80
2019-05-15T14:50:21.139Z,102142.35
2019-05-15T14:52:51.160Z,102143.73
2019-05-15T14:55:21.127Z,102148.45
2019-05-15T14:57:51.134Z,102143.37
2019-05-15T15:00:21.398Z,102149.28
2019-05-15T15:02:51.477Z,102145.63
2019-05-15T15:05:23.137Z,102152.01
2019-05-15T15:07:53.361Z,102146.65
2019-05-15T15:10:23.345Z,102142.04
2019-05-15T15:12:53.368Z,102148.81
2019-05-15T15:15:23.328Z,102138.05
2019-05-15T15:17:53.365Z,102139.27
2019-05-15T15:20:23.716Z,102138.69
2019-05-15T15:22:53.726Z,102145.75
2019-05-15T15:25:23.714Z,102126.56
2019-05-15T15:27:53.746Z,102141.45
2019-05-15T15:30:23.746Z,102138.95
2019-05-15T15:32:53.728Z,102142.37
2019-05-15T15:35:23.696Z,102134.58
2019-05-15T15:37:53.688Z,102140.71
2019-05-15T15:40:23.676Z,102129.05
2019-05-15T15:42:53.685Z,102143.13
2019-05-15T15:45:23.766Z,102135.81
2019-05-15T15:47:53.784Z,102146.89
2019-05-15T15:50:23.768Z,102144.03
2019-05-15T15:52:53.782Z,102131.34
2019-05-15T15:55:23.764Z,102139.35
2019-05-15T15:57:53.768Z,102134.66
2019-05-15T16:00:23.795Z,102130.05
2019-05-15T16:02:53.808Z,102129.50
2019-05-15T16:05:23.816Z,102128.83
2019-05-15T16:07:53.814Z,102124.76
2019-05-15T16:10:23.847Z,102114.72
2019-05-15T16:12:53.806Z,102105.92
2019-05-15T16:15:23.822Z,102125.20
2019-05-15T16:17:54.122Z,102116.89
2019-05-15T16:20:24.121Z,102110.50
2019-05-15T16:22:54.147Z,102104.64
2019-05-15T16:25:24.132Z,102098.66
2019-05-15T16:27:54.125Z,102095.78
2019-05-15T16:30:24.615Z,102095.24
2019-05-15T16:32:54.665Z,102091.02
2019-05-15T16:35:24.687Z,102087.45
2019-05-15T16:37:54.686Z,102090.17
2019-05-15T16:40:24.732Z,102087.70
2019-05-15T16:42:54.701Z,102093.82
2019-05-15T16:45:24.712Z,102096.64
2019-05-15T16:47:55.594Z,102085.36
2019-05-15T16:50:25.682Z,102084.02
2019-05-15T16:52:55.677Z,102087.98
2019-05-15T16:55:25.816Z,102083.95
2019-05-15T16:57:55.785Z,102081.44
2019-05-15T17:00:25.746Z,102088.64
2019-05-15T17:03:08.612Z,102083.30
2019-05-15T17:05:29.165Z,102085.66
2019-05-15T17:07:59.318Z,102081.02
2019-05-15T17:10:29.325Z,102077.29
2019-05-15T17:12:59.320Z,102086.52
2019-05-15T17:15:29.716Z,102087.55
2019-05-15T17:17:59.683Z,102087.58
2019-05-15T17:20:29.704Z,102088.83
2019-05-15T17:22:59.720Z,102083.81
2019-05-15T17:25:29.733Z,102086.42
2019-05-15T17:27:59.709Z,102079.83
2019-05-15T17:30:30.023Z,102074.37
2019-05-15T17:33:00.069Z,102080.90
2019-05-15T17:35:30.064Z,102079.47
2019-05-15T17:38:00.108Z,102077.58
2019-05-15T17:40:30.185Z,102072.25
2019-05-15T17:43:02.579Z,102071.08
2019-05-15T17:45:31.935Z,102067.00
2019-05-15T17:48:01.964Z,102067.00
2019-05-15T17:50:45.114Z,102068.13
2019-05-15T17:53:03.643Z,102071.16
2019-05-15T17:55:33.653Z,102061.09
2019-05-15T17:58:03.676Z,102064.91
2019-05-15T18:00:34.003Z,102068.05
2019-05-15T18:03:04.167Z,102065.13
2019-05-15T18:05:34.185Z,102069.42
2019-05-15T18:08:04.156Z,102063.71
2019-05-15T18:10:34.180Z,102071.30
2019-05-15T18:13:04.184Z,102072.57
2019-05-15T18:15:34.363Z,102071.13
2019-05-15T18:18:04.355Z,102069.02
2019-05-15T18:20:34.402Z,102072.64
2019-05-15T18:23:04.365Z,102063.98
2019-05-15T18:25:34.377Z,102063.87
2019-05-15T18:28:04.389Z,102071.57
2019-05-15T18:30:34.679Z,102066.55
2019-05-15T18:33:04.665Z,102071.34
2019-05-15T18:35:34.705Z,102072.25
2019-05-15T18:38:04.677Z,102077.34
2019-05-15T18:40:34.697Z,102078.16
2019-05-15T18:43:04.718Z,102076.42
2019-05-15T18:45:35.041Z,102078.47
2019-05-15T18:48:05.063Z,102086.24
2019-05-15T18:50:35.075Z,102078.34
2019-05-15T18:53:05.240Z,102084.98
2019-05-15T18:55:35.227Z,102085.55
2019-05-15T18:58:05.294Z,102085.09
2019-05-15T19:00:36.180Z,102087.58
2019-05-15T19:03:19.118Z,102090.59
2019-05-15T19:05:38.644Z,102088.94
2019-05-15T19:08:08.859Z,102097.58
2019-05-15T19:10:38.886Z,102091.75
2019-05-15T19:13:08.913Z,102096.03
2019-05-15T19:15:39.179Z,102091.91
2019-05-15T19:18:09.174Z,102098.55
2019-05-15T19:20:39.251Z,102101.70
2019-05-15T19:23:09.352Z,102101.80
2019-05-15T19:25:39.358Z,102102.68
2019-05-15T19:28:09.386Z,102099.38
2019-05-15T19:30:39.359Z,102103.23
2019-05-15T19:33:09.406Z,102110.48
2019-05-15T19:35:39.391Z,102100.03
2019-05-15T19:38:09.410Z,102108.28
2019-05-15T19:40:39.419Z,102101.97
2019-05-15T19:43:09.471Z,102106.48
2019-05-15T19:45:39.476Z,102106.81
2019-05-15T19:48:09.507Z,102110.31
2019-05-15T19:50:39.606Z,102107.52
2019-05-15T19:53:09.618Z,102107.11
2019-05-15T19:55:39.652Z,102107.27
2019-05-15T19:58:09.634Z,102109.09
2019-05-15T20:00:39.640Z,102102.81
2019-05-15T20:03:09.823Z,102108.03
2019-05-15T20:05:39.851Z,102112.19
2019-05-15T20:08:09.892Z,102111.11
2019-05-15T20:10:40.130Z,102111.98
2019-05-15T20:13:10.172Z,102114.43
2019-05-15T20:15:40.128Z,102119.25
2019-05-15T20:18:10.445Z,102116.41
2019-05-15T20:20:40.452Z,102121.11
2019-05-15T20:23:10.542Z,102115.49
2019-05-15T20:25:40.608Z,102114.22
2019-05-15T20:28:10.629Z,102112.09
2019-05-15T20:30:40.649Z,102112.78
2019-05-15T20:33:11.291Z,102107.93
2019-05-15T20:35:41.284Z,102105.87
2019-05-15T20:38:11.357Z,102101.16
2019-05-15T20:40:41.338Z,102109.16
2019-05-15T20:43:11.410Z,102108.17
2019-05-15T20:45:41.431Z,102107.73
2019-05-15T20:48:11.458Z,102101.23
2019-05-15T20:50:41.456Z,102100.87
2019-05-15T20:53:12.312Z,102104.44
2019-05-15T20:55:42.333Z,102107.44
2019-05-15T20:58:12.345Z,102107.05
2019-05-15T21:00:42.347Z,102111.19
2019-05-15T21:03:12.341Z,102099.95
2019-05-15T21:05:42.546Z,102096.83
2019-05-15T21:08:12.568Z,102102.52
2019-05-15T21:10:43.198Z,102097.73
2019-05-15T21:13:13.149Z,102099.25
2019-05-15T21:15:43.160Z,102101.35
2019-05-15T21:18:15.418Z,102101.35
2019-05-15T21:20:44.828Z,102100.56
2019-05-15T21:23:14.831Z,102094.64
2019-05-15T21:25:44.843Z,102096.79
2019-05-15T21:28:14.828Z,102096.71
2019-05-15T21:30:44.856Z,102093.81
2019-05-15T21:33:14.920Z,102095.86
2019-05-15T21:35:44.912Z,102090.95
2019-05-15T21:38:14.934Z,102090.95
2019-05-15T21:40:44.953Z,102083.93
2019-05-15T21:43:14.994Z,102078.17
2019-05-15T21:45:45.024Z,102079.59
2019-05-15T21:48:15.046Z,102077.86
2019-05-15T21:50:45.043Z,102082.05
2019-05-15T21:53:15.262Z,102073.22
2019-05-15T21:55:45.376Z,102072.91
2019-05-15T21:58:18.613Z,102072.91
2019-05-15T22:00:51.576Z,102070.79
2019-05-15T22:03:21.725Z,102073.87
2019-05-15T22:05:51.748Z,102072.95
2019-05-15T22:08:21.919Z,102076.27
2019-05-15T22:10:52.054Z,102070.03
2019-05-15T22:13:22.031Z,102069.83
2019-05-15T22:15:52.043Z,102069.83
2019-05-15T22:18:22.480Z,102072.44
2019-05-15T22:20:52.506Z,102064.78
2019-05-15T22:23:22.764Z,102064.78
2019-05-15T22:25:52.818Z,102063.52
2019-05-15T22:28:22.784Z,102055.58
2019-05-15T22:30:52.768Z,102054.97
2019-05-15T22:33:22.834Z,102042.23
2019-05-15T22:35:52.837Z,102042.23
2019-05-15T22:38:22.814Z,102055.78
2019-05-15T22:40:52.801Z,102052.99
2019-05-15T22:43:22.751Z,102052.99
2019-05-15T22:45:52.745Z,102042.33
2019-05-15T22:48:22.690Z,102042.33
2019-05-15T22:50:52.685Z,102047.76
2019-05-15T22:53:22.676Z,102037.52
2019-05-15T22:55:53.053Z,102032.72
2019-05-15T22:58:23.058Z,102032.72
2019-05-15T23:00:53.035Z,102027.05
2019-05-15T23:03:23.022Z,102027.05
2019-05-15T23:05:53.044Z,102028.80
2019-05-15T23:08:23.008Z,102019.66
2019-05-15T23:10:53.173Z,102023.61
2019-05-15T23:13:23.154Z,102022.42
2019-05-15T23:15:53.123Z,102013.83
2019-05-15T23:18:23.134Z,102013.83
2019-05-15T23:20:53.131Z,102006.43
2019-05-15T23:23:23.131Z,102007.39
2019-05-15T23:25:53.110Z,101998.44
2019-05-15T23:28:23.115Z,102000.88
2019-05-15T23:30:53.081Z,101995.95
2019-05-15T23:33:23.147Z,101986.22
2019-05-15T23:35:53.135Z,101986.22
2019-05-15T23:38:23.121Z,101988.28
2019-05-15T23:40:53.107Z,101982.03
2019-05-15T23:43:23.088Z,101984.05
2019-05-15T23:45:53.043Z,101971.45
2019-05-15T23:48:23.028Z,101979.59
2019-05-15T23:50:53.001Z,101974.80
2019-05-15T23:53:22.984Z,101969.03
2019-05-15T23:55:52.990Z,101969.03
2019-05-15T23:58:22.983Z,101959.34
